IRM1060 OIII-OIAW
Flight info
| Callsign | IRM1060 |
|---|---|
| Flight time | 0h 54m |
| Altitude | 32000 |
| Route | EGVEL B417 IMKEN W6 ITIBI |
| Aircraft | RJ1H/M-SDFGIRWY/LB1 |
Departure
| Time | 2026-04-18 12:06 |
|---|---|
| Airport | Mehrabad International Airport (OIII) |
Arrival
| Time | 2026-04-18 13:00 |
|---|---|
| Airport | Qasem Soleimani International Airport (OIAW) |
| Time | Latitude | Longitude | Altitude | Speed | Heading |
|---|---|---|---|---|---|
| 2026-04-18 11:48 | 35.68798 | 51.32737 | 3848 ft | 0 kts | 199° |
| 2026-04-18 12:01 | 35.68787 | 51.32732 | 3855 ft | 3 kts | 199° |
| 2026-04-18 12:01 | 35.68758 | 51.32721 | 3853 ft | 5 kts | 179° |
| 2026-04-18 12:01 | 35.68731 | 51.32766 | 3847 ft | 8 kts | 107° |
| 2026-04-18 12:02 | 35.68710 | 51.32839 | 3846 ft | 10 kts | 108° |
| 2026-04-18 12:02 | 35.68685 | 51.32927 | 3846 ft | 12 kts | 109° |
| 2026-04-18 12:02 | 35.68655 | 51.33029 | 3842 ft | 14 kts | 109° |
| 2026-04-18 12:02 | 35.68621 | 51.33144 | 3835 ft | 15 kts | 110° |
| 2026-04-18 12:03 | 35.68584 | 51.33270 | 3833 ft | 17 kts | 110° |
| 2026-04-18 12:03 | 35.68544 | 51.33407 | 3828 ft | 16 kts | 107° |
| 2026-04-18 12:03 | 35.68464 | 51.33486 | 3821 ft | 18 kts | 191° |
| 2026-04-18 12:03 | 35.68353 | 51.33439 | 3819 ft | 17 kts | 199° |
| 2026-04-18 12:04 | 35.68249 | 51.33393 | 3817 ft | 11 kts | 208° |
| 2026-04-18 12:04 | 35.68251 | 51.33334 | 3816 ft | 5 kts | 295° |
| 2026-04-18 12:04 | 35.68254 | 51.33325 | 3816 ft | 0 kts | 289° |
| 2026-04-18 12:04 | 35.68317 | 51.33111 | 3823 ft | 55 kts | 290° |
| 2026-04-18 12:05 | 35.68502 | 51.32477 | 3840 ft | 103 kts | 289° |
| 2026-04-18 12:05 | 35.68782 | 51.31494 | 3879 ft | 142 kts | 290° |
| 2026-04-18 12:05 | 35.69082 | 51.30236 | 4081 ft | 160 kts | 286° |
| 2026-04-18 12:05 | 35.69433 | 51.28934 | 4522 ft | 164 kts | 288° |
| 2026-04-18 12:06 | 35.69777 | 51.27548 | 4888 ft | 170 kts | 274° |
| 2026-04-18 12:06 | 35.69585 | 51.26139 | 5318 ft | 170 kts | 244° |
| 2026-04-18 12:06 | 35.69042 | 51.24911 | 5799 ft | 165 kts | 236° |
| 2026-04-18 12:06 | 35.68355 | 51.23659 | 5845 ft | 186 kts | 233° |
| 2026-04-18 12:07 | 35.67569 | 51.22327 | 5904 ft | 198 kts | 232° |
| 2026-04-18 12:07 | 35.66738 | 51.20983 | 6220 ft | 200 kts | 231° |
| 2026-04-18 12:07 | 35.65882 | 51.19632 | 6740 ft | 200 kts | 231° |
| 2026-04-18 12:07 | 35.65025 | 51.18304 | 7381 ft | 197 kts | 231° |
| 2026-04-18 12:08 | 35.64151 | 51.17002 | 7950 ft | 197 kts | 231° |
| 2026-04-18 12:08 | 35.63242 | 51.15741 | 8565 ft | 198 kts | 230° |
| 2026-04-18 12:08 | 35.62290 | 51.14490 | 9114 ft | 202 kts | 229° |
| 2026-04-18 12:08 | 35.61309 | 51.13204 | 9577 ft | 214 kts | 230° |
| 2026-04-18 12:09 | 35.60255 | 51.11826 | 9962 ft | 230 kts | 230° |
| 2026-04-18 12:09 | 35.59129 | 51.10336 | 10283 ft | 247 kts | 230° |
| 2026-04-18 12:09 | 35.57950 | 51.08763 | 10618 ft | 261 kts | 230° |
| 2026-04-18 12:09 | 35.56690 | 51.07077 | 10974 ft | 274 kts | 231° |
| 2026-04-18 12:10 | 35.55377 | 51.05307 | 11339 ft | 285 kts | 231° |
| 2026-04-18 12:10 | 35.54018 | 51.03445 | 11568 ft | 300 kts | 231° |
| 2026-04-18 12:10 | 35.52600 | 51.01501 | 11736 ft | 313 kts | 231° |
| 2026-04-18 12:10 | 35.51106 | 50.99486 | 11928 ft | 322 kts | 231° |
| 2026-04-18 12:11 | 35.49590 | 50.97451 | 12305 ft | 324 kts | 231° |
| 2026-04-18 12:11 | 35.48083 | 50.95424 | 12685 ft | 326 kts | 231° |
| 2026-04-18 12:11 | 35.46545 | 50.93333 | 13070 ft | 328 kts | 232° |
| 2026-04-18 12:11 | 35.44988 | 50.91317 | 13449 ft | 331 kts | 225° |
| 2026-04-18 12:12 | 35.43032 | 50.89767 | 13800 ft | 339 kts | 212° |
| 2026-04-18 12:12 | 35.40925 | 50.88473 | 14129 ft | 341 kts | 210° |
| 2026-04-18 12:12 | 35.38761 | 50.87225 | 14460 ft | 343 kts | 208° |
| 2026-04-18 12:12 | 35.36588 | 50.86034 | 14798 ft | 344 kts | 208° |
| 2026-04-18 12:13 | 35.34386 | 50.84853 | 15138 ft | 346 kts | 208° |
| 2026-04-18 12:13 | 35.32178 | 50.83677 | 15470 ft | 347 kts | 208° |
| 2026-04-18 12:13 | 35.29964 | 50.82470 | 15820 ft | 348 kts | 208° |
| 2026-04-18 12:13 | 35.27778 | 50.81279 | 16156 ft | 349 kts | 208° |
| 2026-04-18 12:14 | 35.25576 | 50.80058 | 16479 ft | 350 kts | 209° |
| 2026-04-18 12:14 | 35.23360 | 50.78804 | 16799 ft | 351 kts | 209° |
| 2026-04-18 12:14 | 35.21129 | 50.77558 | 17135 ft | 352 kts | 208° |
| 2026-04-18 12:14 | 35.18892 | 50.76325 | 17435 ft | 354 kts | 208° |
| 2026-04-18 12:15 | 35.16636 | 50.75084 | 17739 ft | 356 kts | 209° |
| 2026-04-18 12:15 | 35.14389 | 50.73814 | 18057 ft | 357 kts | 209° |
| 2026-04-18 12:15 | 35.12119 | 50.72546 | 18349 ft | 359 kts | 208° |
| 2026-04-18 12:15 | 35.09863 | 50.71310 | 18627 ft | 360 kts | 208° |
| 2026-04-18 12:16 | 35.07550 | 50.70033 | 18902 ft | 361 kts | 209° |
| 2026-04-18 12:16 | 35.05288 | 50.68774 | 19184 ft | 363 kts | 208° |
| 2026-04-18 12:16 | 35.02986 | 50.67513 | 19433 ft | 364 kts | 209° |
| 2026-04-18 12:16 | 35.00682 | 50.66224 | 19709 ft | 365 kts | 209° |
| 2026-04-18 12:17 | 34.98367 | 50.64932 | 19978 ft | 366 kts | 208° |
| 2026-04-18 12:17 | 34.96055 | 50.63663 | 20315 ft | 365 kts | 208° |
| 2026-04-18 12:17 | 34.93738 | 50.62386 | 20589 ft | 366 kts | 208° |
| 2026-04-18 12:17 | 34.91445 | 50.61123 | 20848 ft | 367 kts | 208° |
| 2026-04-18 12:18 | 34.89093 | 50.59824 | 21110 ft | 368 kts | 208° |
| 2026-04-18 12:18 | 34.86787 | 50.58551 | 21361 ft | 369 kts | 208° |
| 2026-04-18 12:18 | 34.84451 | 50.57257 | 21601 ft | 370 kts | 208° |
| 2026-04-18 12:18 | 34.82100 | 50.55953 | 21850 ft | 371 kts | 208° |
| 2026-04-18 12:19 | 34.79742 | 50.54644 | 22094 ft | 373 kts | 208° |
| 2026-04-18 12:19 | 34.77385 | 50.53337 | 22333 ft | 373 kts | 208° |
| 2026-04-18 12:19 | 34.75007 | 50.52047 | 22580 ft | 375 kts | 208° |
| 2026-04-18 12:19 | 34.72616 | 50.50759 | 22822 ft | 376 kts | 207° |
| 2026-04-18 12:20 | 34.70185 | 50.49683 | 23038 ft | 380 kts | 201° |
| 2026-04-18 12:20 | 34.67632 | 50.48804 | 23260 ft | 382 kts | 199° |
| 2026-04-18 12:20 | 34.65059 | 50.47999 | 23493 ft | 383 kts | 198° |
| 2026-04-18 12:20 | 34.62462 | 50.47217 | 23686 ft | 385 kts | 198° |
| 2026-04-18 12:21 | 34.59854 | 50.46451 | 23878 ft | 386 kts | 198° |
| 2026-04-18 12:21 | 34.57247 | 50.45686 | 24068 ft | 387 kts | 198° |
| 2026-04-18 12:21 | 34.54630 | 50.44893 | 24224 ft | 388 kts | 198° |
| 2026-04-18 12:21 | 34.52016 | 50.44087 | 24399 ft | 389 kts | 198° |
| 2026-04-18 12:22 | 34.49382 | 50.43270 | 24498 ft | 392 kts | 198° |
| 2026-04-18 12:22 | 34.46769 | 50.42456 | 24701 ft | 392 kts | 198° |
| 2026-04-18 12:22 | 34.44130 | 50.41636 | 24909 ft | 392 kts | 198° |
| 2026-04-18 12:22 | 34.41487 | 50.40823 | 25140 ft | 391 kts | 198° |
| 2026-04-18 12:23 | 34.38846 | 50.40013 | 25372 ft | 391 kts | 198° |
| 2026-04-18 12:23 | 34.36215 | 50.39209 | 25581 ft | 391 kts | 198° |
| 2026-04-18 12:23 | 34.33580 | 50.38393 | 25781 ft | 390 kts | 199° |
| 2026-04-18 12:23 | 34.30966 | 50.37560 | 25984 ft | 389 kts | 199° |
| 2026-04-18 12:24 | 34.28343 | 50.36748 | 26190 ft | 388 kts | 199° |
| 2026-04-18 12:24 | 34.25753 | 50.35964 | 26387 ft | 388 kts | 199° |
| 2026-04-18 12:24 | 34.23100 | 50.35142 | 26596 ft | 388 kts | 199° |
| 2026-04-18 12:24 | 34.20520 | 50.34329 | 26797 ft | 388 kts | 199° |
| 2026-04-18 12:25 | 34.17909 | 50.33510 | 26988 ft | 388 kts | 199° |
| 2026-04-18 12:25 | 34.15298 | 50.32718 | 27199 ft | 388 kts | 199° |
| 2026-04-18 12:25 | 34.12686 | 50.31905 | 27417 ft | 387 kts | 199° |
| 2026-04-18 12:25 | 34.10077 | 50.31095 | 27547 ft | 389 kts | 199° |
| 2026-04-18 12:26 | 34.07447 | 50.30299 | 27709 ft | 389 kts | 199° |
| 2026-04-18 12:26 | 34.04821 | 50.29488 | 27905 ft | 389 kts | 199° |
| 2026-04-18 12:26 | 34.02207 | 50.28679 | 28130 ft | 388 kts | 199° |
| 2026-04-18 12:26 | 33.99621 | 50.27879 | 28326 ft | 388 kts | 199° |
| 2026-04-18 12:27 | 33.97009 | 50.27077 | 28548 ft | 388 kts | 199° |
| 2026-04-18 12:27 | 33.94392 | 50.26272 | 28762 ft | 388 kts | 199° |
| 2026-04-18 12:27 | 33.91774 | 50.25472 | 28976 ft | 388 kts | 199° |
| 2026-04-18 12:27 | 33.89165 | 50.24674 | 29179 ft | 388 kts | 199° |
| 2026-04-18 12:28 | 33.86548 | 50.23878 | 29396 ft | 387 kts | 199° |
| 2026-04-18 12:28 | 33.83933 | 50.23086 | 29590 ft | 387 kts | 199° |
| 2026-04-18 12:28 | 33.81326 | 50.22300 | 29787 ft | 387 kts | 199° |
| 2026-04-18 12:28 | 33.78746 | 50.21525 | 29974 ft | 387 kts | 199° |
| 2026-04-18 12:29 | 33.76140 | 50.20744 | 30157 ft | 387 kts | 199° |
| 2026-04-18 12:29 | 33.73523 | 50.19945 | 30321 ft | 386 kts | 200° |
| 2026-04-18 12:29 | 33.70928 | 50.19135 | 30482 ft | 385 kts | 200° |
| 2026-04-18 12:29 | 33.68332 | 50.18334 | 30653 ft | 385 kts | 200° |
| 2026-04-18 12:30 | 33.65751 | 50.17549 | 30802 ft | 384 kts | 200° |
| 2026-04-18 12:30 | 33.60536 | 50.15982 | 30890 ft | 389 kts | 200° |
| 2026-04-18 12:31 | 33.55269 | 50.14405 | 30941 ft | 396 kts | 200° |
| 2026-04-18 12:31 | 33.52565 | 50.13591 | 31056 ft | 396 kts | 200° |
| 2026-04-18 12:31 | 33.49930 | 50.12779 | 31197 ft | 396 kts | 201° |
| 2026-04-18 12:31 | 33.47264 | 50.11943 | 31304 ft | 396 kts | 201° |
| 2026-04-18 12:32 | 33.44598 | 50.11127 | 31413 ft | 396 kts | 200° |
| 2026-04-18 12:32 | 33.41924 | 50.10329 | 31534 ft | 396 kts | 200° |
| 2026-04-18 12:32 | 33.39249 | 50.09527 | 31659 ft | 395 kts | 201° |
| 2026-04-18 12:32 | 33.36592 | 50.08709 | 31801 ft | 395 kts | 201° |
| 2026-04-18 12:33 | 33.33917 | 50.07884 | 31928 ft | 395 kts | 201° |
| 2026-04-18 12:33 | 33.28706 | 50.06324 | 32010 ft | 387 kts | 201° |
| 2026-04-18 12:34 | 33.23478 | 50.04736 | 32040 ft | 388 kts | 201° |
| 2026-04-18 12:34 | 33.18239 | 50.03144 | 32028 ft | 389 kts | 201° |
| 2026-04-18 12:35 | 33.12980 | 50.01589 | 32053 ft | 391 kts | 200° |
| 2026-04-18 12:35 | 33.07726 | 50.00013 | 32071 ft | 392 kts | 201° |
| 2026-04-18 12:36 | 33.02423 | 49.98420 | 32055 ft | 392 kts | 201° |
| 2026-04-18 12:36 | 32.97152 | 49.96839 | 32051 ft | 391 kts | 201° |
| 2026-04-18 12:37 | 32.91890 | 49.95264 | 32066 ft | 393 kts | 201° |
| 2026-04-18 12:37 | 32.86572 | 49.93687 | 32056 ft | 395 kts | 201° |
| 2026-04-18 12:38 | 32.81243 | 49.92113 | 32053 ft | 394 kts | 201° |
| 2026-04-18 12:38 | 32.75913 | 49.90539 | 32075 ft | 396 kts | 201° |
| 2026-04-18 12:39 | 32.70560 | 49.88952 | 32085 ft | 398 kts | 201° |
| 2026-04-18 12:39 | 32.65242 | 49.87344 | 32062 ft | 397 kts | 201° |
| 2026-04-18 12:40 | 32.59874 | 49.85747 | 32101 ft | 398 kts | 201° |
| 2026-04-18 12:40 | 32.54508 | 49.84159 | 32112 ft | 398 kts | 201° |
| 2026-04-18 12:40 | 32.51800 | 49.83355 | 31743 ft | 403 kts | 201° |
| 2026-04-18 12:41 | 32.49087 | 49.82541 | 31258 ft | 402 kts | 201° |
| 2026-04-18 12:41 | 32.46376 | 49.81722 | 30775 ft | 402 kts | 200° |
| 2026-04-18 12:41 | 32.43667 | 49.80917 | 30314 ft | 403 kts | 200° |
| 2026-04-18 12:41 | 32.40983 | 49.80121 | 29844 ft | 402 kts | 200° |
| 2026-04-18 12:42 | 32.38273 | 49.79307 | 29342 ft | 402 kts | 200° |
| 2026-04-18 12:42 | 32.35560 | 49.78494 | 28801 ft | 404 kts | 200° |
| 2026-04-18 12:42 | 32.32819 | 49.77701 | 28277 ft | 405 kts | 199° |
| 2026-04-18 12:42 | 32.30073 | 49.76912 | 27780 ft | 405 kts | 199° |
| 2026-04-18 12:43 | 32.27334 | 49.76123 | 27297 ft | 406 kts | 199° |
| 2026-04-18 12:43 | 32.24590 | 49.75326 | 26760 ft | 406 kts | 199° |
| 2026-04-18 12:43 | 32.21866 | 49.74519 | 26194 ft | 406 kts | 199° |
| 2026-04-18 12:43 | 32.19118 | 49.73698 | 25715 ft | 406 kts | 199° |
| 2026-04-18 12:44 | 32.16418 | 49.72882 | 25192 ft | 407 kts | 199° |
| 2026-04-18 12:44 | 32.13663 | 49.72066 | 24686 ft | 408 kts | 198° |
| 2026-04-18 12:44 | 32.10908 | 49.71264 | 24256 ft | 407 kts | 198° |
| 2026-04-18 12:44 | 32.08156 | 49.70457 | 23813 ft | 408 kts | 198° |
| 2026-04-18 12:45 | 32.05398 | 49.69646 | 23296 ft | 409 kts | 198° |
| 2026-04-18 12:45 | 32.02655 | 49.68830 | 22757 ft | 406 kts | 198° |
| 2026-04-18 12:45 | 31.99902 | 49.68023 | 22208 ft | 406 kts | 198° |
| 2026-04-18 12:45 | 31.97170 | 49.67242 | 21692 ft | 403 kts | 198° |
| 2026-04-18 12:46 | 31.94497 | 49.66457 | 21203 ft | 399 kts | 198° |
| 2026-04-18 12:46 | 31.91813 | 49.65662 | 20718 ft | 397 kts | 198° |
| 2026-04-18 12:46 | 31.89139 | 49.64897 | 20240 ft | 395 kts | 197° |
| 2026-04-18 12:46 | 31.86480 | 49.64140 | 19752 ft | 393 kts | 197° |
| 2026-04-18 12:47 | 31.83825 | 49.63363 | 19274 ft | 390 kts | 198° |
| 2026-04-18 12:47 | 31.81198 | 49.62580 | 18820 ft | 389 kts | 197° |
| 2026-04-18 12:47 | 31.78577 | 49.61823 | 18378 ft | 387 kts | 197° |
| 2026-04-18 12:47 | 31.76063 | 49.60833 | 17839 ft | 379 kts | 212° |
| 2026-04-18 12:48 | 31.74033 | 49.58918 | 17329 ft | 373 kts | 227° |
| 2026-04-18 12:48 | 31.72283 | 49.56747 | 16819 ft | 369 kts | 231° |
| 2026-04-18 12:48 | 31.70736 | 49.54356 | 16307 ft | 368 kts | 238° |
| 2026-04-18 12:48 | 31.69387 | 49.51813 | 15734 ft | 365 kts | 241° |
| 2026-04-18 12:49 | 31.68150 | 49.49225 | 15183 ft | 364 kts | 243° |
| 2026-04-18 12:49 | 31.66955 | 49.46607 | 14641 ft | 363 kts | 243° |
| 2026-04-18 12:49 | 31.65770 | 49.43997 | 14105 ft | 361 kts | 243° |
| 2026-04-18 12:49 | 31.64583 | 49.41413 | 13606 ft | 360 kts | 243° |
| 2026-04-18 12:50 | 31.63394 | 49.38825 | 13050 ft | 359 kts | 243° |
| 2026-04-18 12:50 | 31.62195 | 49.36271 | 12533 ft | 356 kts | 242° |
| 2026-04-18 12:50 | 31.61002 | 49.33740 | 12012 ft | 355 kts | 242° |
| 2026-04-18 12:50 | 31.59812 | 49.31205 | 11503 ft | 352 kts | 242° |
| 2026-04-18 12:51 | 31.58648 | 49.28741 | 11004 ft | 350 kts | 241° |
| 2026-04-18 12:51 | 31.57363 | 49.26325 | 10509 ft | 348 kts | 236° |
| 2026-04-18 12:51 | 31.55930 | 49.24061 | 9924 ft | 338 kts | 233° |
| 2026-04-18 12:51 | 31.54558 | 49.22012 | 9287 ft | 303 kts | 232° |
| 2026-04-18 12:52 | 31.53289 | 49.20138 | 8630 ft | 294 kts | 232° |
| 2026-04-18 12:52 | 31.52020 | 49.18239 | 8106 ft | 295 kts | 232° |
| 2026-04-18 12:52 | 31.50757 | 49.16346 | 7606 ft | 294 kts | 232° |
| 2026-04-18 12:52 | 31.49510 | 49.14467 | 7132 ft | 292 kts | 232° |
| 2026-04-18 12:53 | 31.48284 | 49.12616 | 6662 ft | 290 kts | 232° |
| 2026-04-18 12:53 | 31.47061 | 49.10751 | 6175 ft | 281 kts | 232° |
| 2026-04-18 12:53 | 31.45918 | 49.09019 | 5686 ft | 260 kts | 232° |
| 2026-04-18 12:53 | 31.44805 | 49.07326 | 5295 ft | 264 kts | 232° |
| 2026-04-18 12:54 | 31.43687 | 49.05631 | 4918 ft | 263 kts | 231° |
| 2026-04-18 12:54 | 31.42580 | 49.03969 | 4565 ft | 251 kts | 231° |
| 2026-04-18 12:54 | 31.41528 | 49.02373 | 4263 ft | 247 kts | 231° |
| 2026-04-18 12:54 | 31.40481 | 49.00785 | 3968 ft | 245 kts | 231° |
| 2026-04-18 12:55 | 31.39449 | 48.99215 | 3702 ft | 238 kts | 231° |
| 2026-04-18 12:55 | 31.38479 | 48.97735 | 3426 ft | 224 kts | 231° |
| 2026-04-18 12:55 | 31.37529 | 48.96286 | 3158 ft | 229 kts | 231° |
| 2026-04-18 12:55 | 31.36548 | 48.94810 | 2903 ft | 230 kts | 231° |
| 2026-04-18 12:56 | 31.35568 | 48.93325 | 2637 ft | 230 kts | 231° |
| 2026-04-18 12:56 | 31.34594 | 48.91856 | 2361 ft | 224 kts | 231° |
| 2026-04-18 12:56 | 31.33676 | 48.90467 | 2144 ft | 210 kts | 231° |
| 2026-04-18 12:56 | 31.32819 | 48.89166 | 1955 ft | 196 kts | 231° |
| 2026-04-18 12:57 | 31.31991 | 48.87905 | 1732 ft | 193 kts | 230° |
| 2026-04-18 12:57 | 31.31211 | 48.86729 | 1477 ft | 176 kts | 230° |
| 2026-04-18 12:57 | 31.30482 | 48.85638 | 1234 ft | 170 kts | 231° |
| 2026-04-18 12:57 | 31.29822 | 48.84531 | 947 ft | 161 kts | 248° |
| 2026-04-18 12:58 | 31.29820 | 48.83296 | 701 ft | 146 kts | 285° |
| 2026-04-18 12:58 | 31.30240 | 48.82279 | 426 ft | 134 kts | 301° |
| 2026-04-18 12:58 | 31.30719 | 48.81348 | 414 ft | 134 kts | 299° |
| 2026-04-18 12:58 | 31.31249 | 48.80426 | 430 ft | 143 kts | 307° |
| 2026-04-18 12:59 | 31.31847 | 48.79446 | 394 ft | 155 kts | 303° |
| 2026-04-18 12:59 | 31.32473 | 48.78369 | 252 ft | 162 kts | 304° |
| 2026-04-18 12:59 | 31.33087 | 48.77323 | 97 ft | 147 kts | 305° |
| 2026-04-18 12:59 | 31.33594 | 48.76458 | 64 ft | 110 kts | 303° |
| 2026-04-18 13:00 | 31.33938 | 48.75862 | 62 ft | 64 kts | 304° |
| 2026-04-18 13:00 | 31.34090 | 48.75601 | 64 ft | 26 kts | 304° |
| 2026-04-18 13:00 | 31.34183 | 48.75440 | 67 ft | 17 kts | 304° |
| 2026-04-18 13:00 | 31.34238 | 48.75348 | 63 ft | 12 kts | 306° |
| 2026-04-18 13:01 | 31.34282 | 48.75270 | 64 ft | 11 kts | 303° |
| 2026-04-18 13:01 | 31.34322 | 48.75198 | 67 ft | 10 kts | 303° |
| 2026-04-18 13:01 | 31.34333 | 48.75133 | 70 ft | 7 kts | 261° |
| 2026-04-18 13:01 | 31.34314 | 48.75090 | 69 ft | 6 kts | 230° |
| 2026-04-18 13:02 | 31.34286 | 48.75060 | 66 ft | 6 kts | 229° |
| 2026-04-18 13:02 | 31.34282 | 48.75024 | 65 ft | 4 kts | 298° |
| 2026-04-18 13:02 | 31.34300 | 48.74992 | 69 ft | 7 kts | 304° |
| 2026-04-18 13:02 | 31.34334 | 48.74936 | 70 ft | 4 kts | 308° |
| 2026-04-18 13:03 | 31.34338 | 48.74929 | 72 ft | 4 kts | 308° |
| 2026-04-18 13:03 | 31.34379 | 48.74857 | 68 ft | 5 kts | 292° |
| 2026-04-18 13:03 | 31.34393 | 48.74830 | 67 ft | 6 kts | 305° |
| 2026-04-18 13:04 | 31.34382 | 48.74790 | 73 ft | 4 kts | 218° |
| 2026-04-18 13:04 | 31.34374 | 48.74783 | 68 ft | 3 kts | 219° |
| 2026-04-18 13:04 | 31.34370 | 48.74779 | 70 ft | 2 kts | 226° |
| 2026-04-18 13:04 | 31.34368 | 48.74768 | 64 ft | 2 kts | 265° |
| 2026-04-18 13:05 | 31.34368 | 48.74756 | 71 ft | 1 kts | 276° |
| 2026-04-18 13:05 | 31.34369 | 48.74751 | 72 ft | 2 kts | 276° |
| 2026-04-18 13:05 | 31.34369 | 48.74748 | 72 ft | 0 kts | 278° |